createdAt,value
2018-05-12T00:00:04.999Z,16.67
2018-05-12T00:02:32.510Z,10.70
2018-05-12T00:05:00.092Z,9.50
2018-05-12T00:07:27.740Z,10.25
2018-05-12T00:09:55.375Z,9.93
2018-05-12T00:12:23.075Z,10.00
2018-05-12T00:14:51.645Z,9.50
2018-05-12T00:17:22.326Z,13.13
2018-05-12T00:19:49.875Z,9.45
2018-05-12T00:22:18.392Z,7.45
2018-05-12T00:24:46.030Z,12.88
2018-05-12T00:27:13.752Z,8.02
2018-05-12T00:29:41.466Z,12.75
2018-05-12T00:32:09.151Z,6.62
2018-05-12T00:34:38.548Z,7.62
2018-05-12T00:37:07.023Z,6.72
2018-05-12T00:39:34.682Z,6.93
2018-05-12T00:42:02.328Z,23.00
2018-05-12T00:44:29.921Z,6.70
2018-05-12T00:46:57.513Z,7.68
2018-05-12T00:49:25.152Z,34.50
2018-05-12T00:51:52.838Z,10.77
2018-05-12T00:54:20.492Z,7.35
2018-05-12T00:56:48.868Z,6.97
2018-05-12T00:59:16.587Z,6.60
2018-05-12T01:01:44.210Z,5.90
2018-05-12T01:04:12.619Z,6.18
2018-05-12T01:06:40.170Z,9.07
2018-05-12T01:09:08.557Z,6.30
2018-05-12T01:11:36.175Z,10.90
2018-05-12T01:14:04.609Z,7.43
2018-05-12T01:16:32.273Z,7.53
2018-05-12T01:19:00.012Z,9.02
2018-05-12T01:21:27.690Z,8.88
2018-05-12T01:23:55.292Z,7.18
2018-05-12T01:26:22.912Z,10.63
2018-05-12T01:28:50.576Z,17.95
2018-05-12T01:31:18.268Z,7.82
2018-05-12T01:33:46.001Z,6.00
2018-05-12T01:36:14.337Z,7.87
2018-05-12T01:38:42.020Z,8.57
2018-05-12T01:41:09.762Z,6.80
2018-05-12T01:43:37.493Z,8.32
2018-05-12T01:46:05.127Z,5.93
2018-05-12T01:48:32.739Z,9.40
2018-05-12T01:51:00.350Z,6.57
2018-05-12T01:53:28.000Z,6.25
2018-05-12T01:55:55.599Z,6.07
2018-05-12T01:58:23.254Z,6.45
2018-05-12T02:00:50.919Z,6.62
2018-05-12T02:03:18.560Z,5.03
2018-05-12T02:05:46.203Z,8.70
2018-05-12T02:08:13.817Z,6.47
2018-05-12T02:10:41.616Z,6.95
2018-05-12T02:13:10.017Z,8.13
2018-05-12T02:15:37.911Z,5.97
2018-05-12T02:18:05.558Z,3.83
2018-05-12T02:20:33.393Z,5.07
2018-05-12T02:23:01.035Z,4.85
2018-05-12T02:25:28.627Z,5.72
2018-05-12T02:27:56.160Z,4.22
2018-05-12T02:30:23.850Z,4.37
2018-05-12T02:32:51.556Z,8.03
2018-05-12T02:35:19.230Z,6.53
2018-05-12T02:37:46.951Z,4.10
2018-05-12T02:40:14.724Z,4.82
2018-05-12T02:42:43.095Z,4.12
2018-05-12T02:45:10.671Z,6.85
2018-05-12T02:47:38.233Z,6.50
2018-05-12T02:50:05.856Z,4.20
2018-05-12T02:52:33.422Z,4.53
2018-05-12T02:55:01.795Z,4.20
2018-05-12T02:57:30.211Z,7.53
2018-05-12T02:59:58.659Z,5.12
2018-05-12T03:02:26.337Z,8.88
2018-05-12T03:04:54.118Z,4.87
2018-05-12T03:07:22.260Z,6.25
2018-05-12T03:09:49.802Z,7.28
2018-05-12T03:12:17.501Z,6.67
2018-05-12T03:14:45.208Z,4.18
2018-05-12T03:17:12.924Z,4.05
2018-05-12T03:19:41.440Z,4.57
2018-05-12T03:22:09.784Z,4.22
2018-05-12T03:24:37.496Z,4.20
2018-05-12T03:27:05.150Z,5.40
2018-05-12T03:29:33.681Z,3.90
2018-05-12T03:32:01.500Z,4.37
2018-05-12T03:34:29.043Z,4.20
2018-05-12T03:36:56.781Z,4.90
2018-05-12T03:39:24.396Z,4.80
2018-05-12T03:41:52.115Z,4.22
2018-05-12T03:44:20.476Z,4.70
2018-05-12T03:46:48.905Z,5.67
2018-05-12T03:49:16.464Z,8.73
2018-05-12T03:51:44.078Z,4.55
2018-05-12T03:54:12.413Z,3.87
2018-05-12T03:56:40.035Z,6.37
2018-05-12T03:59:07.647Z,3.70
2018-05-12T04:01:35.347Z,3.97
2018-05-12T04:04:03.056Z,4.87
2018-05-12T04:09:43.824Z,4.13
2018-05-12T04:12:23.292Z,6.87
2018-05-12T04:14:51.660Z,5.97
2018-05-12T04:17:19.341Z,11.63
2018-05-12T04:19:47.061Z,6.93
2018-05-12T04:22:14.705Z,4.90
2018-05-12T04:24:42.288Z,4.03
2018-05-12T04:27:09.915Z,4.80
2018-05-12T04:29:37.506Z,7.17
2018-05-12T04:32:05.196Z,6.83
2018-05-12T04:34:32.840Z,4.60
2018-05-12T04:37:00.478Z,4.30
2018-05-12T04:39:28.109Z,4.13
2018-05-12T04:41:56.529Z,4.20
2018-05-12T04:44:24.196Z,4.37
2018-05-12T04:46:51.811Z,4.80
2018-05-12T04:49:19.659Z,4.73
2018-05-12T04:51:48.112Z,4.00
2018-05-12T04:54:15.774Z,4.90
2018-05-12T04:56:43.384Z,3.40
2018-05-12T05:01:45.710Z,8.63
2018-05-12T05:04:13.397Z,4.70
2018-05-12T05:06:41.004Z,4.27
2018-05-12T05:09:10.246Z,4.40
2018-05-12T05:11:37.880Z,4.80
2018-05-12T05:14:05.565Z,6.00
2018-05-12T05:16:34.039Z,5.07
2018-05-12T05:19:01.674Z,6.60
2018-05-12T05:21:30.080Z,4.67
2018-05-12T05:23:57.738Z,5.90
2018-05-12T05:26:25.374Z,4.33
2018-05-12T05:28:53.128Z,5.35
2018-05-12T05:31:20.783Z,7.43
2018-05-12T05:33:49.223Z,4.90
2018-05-12T05:36:16.899Z,4.93
2018-05-12T05:38:44.546Z,5.20
2018-05-12T05:41:12.261Z,5.47
2018-05-12T05:43:39.872Z,6.50
2018-05-12T05:46:07.491Z,5.47
2018-05-12T05:48:35.092Z,7.10
2018-05-12T05:51:02.784Z,4.50
2018-05-12T05:53:30.430Z,3.97
2018-05-12T05:55:58.183Z,4.37
2018-05-12T05:58:26.005Z,5.23
2018-05-12T06:00:53.708Z,5.50
2018-05-12T06:03:21.468Z,4.70
2018-05-12T06:05:49.145Z,4.60
2018-05-12T06:08:17.638Z,6.47
2018-05-12T06:10:45.328Z,7.80
2018-05-12T06:13:13.734Z,5.37
2018-05-12T06:15:41.429Z,7.00
2018-05-12T06:18:09.150Z,4.20
2018-05-12T06:20:37.774Z,4.67
2018-05-12T06:23:05.409Z,8.53
2018-05-12T06:25:33.780Z,4.67
2018-05-12T06:28:01.488Z,5.47
2018-05-12T06:30:29.044Z,5.83
2018-05-12T06:32:56.876Z,6.57
2018-05-12T06:35:25.807Z,6.97
2018-05-12T06:37:53.445Z,6.57
2018-05-12T06:40:21.232Z,5.43
2018-05-12T06:42:48.964Z,5.87
2018-05-12T06:45:16.758Z,5.83
2018-05-12T06:47:44.627Z,5.20
2018-05-12T06:50:12.298Z,6.20
2018-05-12T06:52:39.994Z,6.07
2018-05-12T06:55:07.615Z,5.30
2018-05-12T06:57:35.325Z,5.60
2018-05-12T07:00:03.159Z,5.53
2018-05-12T07:02:30.892Z,5.43
2018-05-12T07:04:58.561Z,4.97
2018-05-12T07:07:26.330Z,5.30
2018-05-12T07:09:53.936Z,5.93
2018-05-12T07:12:23.190Z,5.20
2018-05-12T07:14:50.694Z,6.03
2018-05-12T07:17:18.509Z,5.67
2018-05-12T07:19:46.167Z,4.90
2018-05-12T07:22:13.746Z,6.10
2018-05-12T07:24:41.359Z,6.63
2018-05-12T07:27:08.947Z,6.37
2018-05-12T07:29:36.484Z,8.50
2018-05-12T07:32:04.123Z,5.80
2018-05-12T07:34:31.736Z,5.37
2018-05-12T07:36:59.295Z,6.20
2018-05-12T07:39:26.931Z,5.83
2018-05-12T07:41:54.611Z,6.07
2018-05-12T07:44:22.257Z,4.87
2018-05-12T07:46:49.767Z,6.57
2018-05-12T07:49:17.397Z,5.57
2018-05-12T07:51:45.167Z,5.93
2018-05-12T07:54:12.702Z,10.17
2018-05-12T07:56:40.396Z,5.43
2018-05-12T07:59:08.128Z,6.30
2018-05-12T08:01:36.879Z,5.60
2018-05-12T08:04:04.700Z,6.67
2018-05-12T08:06:38.114Z,5.73
2018-05-12T08:09:14.918Z,5.10
2018-05-12T08:11:52.145Z,9.10
2018-05-12T08:14:25.758Z,6.10
2018-05-12T08:16:56.040Z,5.10
2018-05-12T08:19:23.696Z,4.77
2018-05-12T08:21:52.405Z,4.70
2018-05-12T08:24:23.785Z,5.53
2018-05-12T08:26:51.413Z,4.43
2018-05-12T08:29:19.069Z,4.27
2018-05-12T08:31:46.772Z,4.10
2018-05-12T08:34:16.614Z,4.13
2018-05-12T08:36:47.630Z,4.27
2018-05-12T08:39:15.493Z,4.30
2018-05-12T08:41:44.425Z,3.67
2018-05-12T08:47:11.829Z,3.43
2018-05-12T08:49:40.604Z,4.40
2018-05-12T08:52:09.096Z,5.40
2018-05-12T08:54:38.225Z,4.17
2018-05-12T08:59:39.057Z,3.40
2018-05-12T09:02:08.689Z,5.70
2018-05-12T09:04:38.150Z,7.93
2018-05-12T09:07:11.226Z,4.47
2018-05-12T10:16:20.356Z,3.03
2018-05-12T10:38:42.541Z,2.77
2018-05-12T10:48:39.927Z,2.67
2018-05-12T10:51:07.608Z,1.70
2018-05-12T11:25:41.367Z,2.23
2018-05-12T11:28:09.074Z,2.27
2018-05-12T11:30:36.769Z,2.30
2018-05-12T11:33:04.418Z,2.10
2018-05-12T11:35:32.073Z,2.00
2018-05-12T11:37:59.574Z,2.40
2018-05-12T11:40:27.178Z,2.73
2018-05-12T11:42:55.598Z,3.20
2018-05-12T11:45:23.269Z,3.03
2018-05-12T11:47:50.903Z,3.40
2018-05-12T11:50:18.741Z,1.90
2018-05-12T11:52:46.307Z,1.97
2018-05-12T11:55:14.747Z,2.40
2018-05-12T12:00:09.386Z,2.25
2018-05-12T12:02:37.800Z,2.83
2018-05-12T12:05:05.398Z,3.77
2018-05-12T12:07:33.871Z,1.75
2018-05-12T12:10:01.712Z,2.50
2018-05-12T12:19:53.799Z,1.90
2018-05-12T12:49:56.448Z,4.30
2018-05-12T13:07:17.890Z,3.93
2018-05-12T13:09:45.491Z,2.23
2018-05-12T13:12:17.892Z,2.20
2018-05-12T13:14:45.767Z,3.50
2018-05-12T13:17:15.655Z,3.67
2018-05-12T13:19:44.277Z,2.63
2018-05-12T13:22:11.829Z,6.80
2018-05-12T13:24:40.733Z,5.90
2018-05-12T13:27:14.333Z,3.63
2018-05-12T13:29:45.272Z,4.80
2018-05-12T13:32:12.826Z,3.47
2018-05-12T13:34:42.042Z,3.37
2018-05-12T13:37:13.144Z,3.50
2018-05-12T13:39:43.775Z,3.87
2018-05-12T13:42:12.556Z,4.80
2018-05-12T13:44:41.751Z,3.17
2018-05-12T13:47:09.628Z,4.50
2018-05-12T13:49:37.425Z,4.03
2018-05-12T13:52:06.060Z,4.90
2018-05-12T13:54:34.558Z,6.13
2018-05-12T13:57:02.946Z,5.87
2018-05-12T13:59:30.896Z,4.83
2018-05-12T14:02:00.317Z,4.83
2018-05-12T14:04:27.965Z,4.23
2018-05-12T14:06:56.825Z,6.13
2018-05-12T14:09:24.415Z,5.13
2018-05-12T14:11:53.881Z,4.53
2018-05-12T14:14:22.647Z,3.97
2018-05-12T14:16:52.431Z,5.87
2018-05-12T14:19:25.101Z,3.83
2018-05-12T14:21:56.354Z,3.53
2018-05-12T14:24:25.267Z,4.33
2018-05-12T14:26:53.628Z,3.77
2018-05-12T14:29:22.358Z,3.73
2018-05-12T14:31:50.268Z,6.67
2018-05-12T14:34:20.040Z,4.00
2018-05-12T14:37:21.781Z,3.67
2018-05-12T14:39:49.378Z,14.90
2018-05-12T14:42:17.826Z,9.87
2018-05-12T14:44:45.447Z,5.03
2018-05-12T14:47:14.737Z,5.70
2018-05-12T14:49:57.277Z,9.60
2018-05-12T14:52:26.847Z,3.60
2018-05-12T14:54:54.516Z,5.63
2018-05-12T14:57:25.143Z,5.30
2018-05-12T14:59:53.900Z,9.13
2018-05-12T15:02:21.917Z,5.23
2018-05-12T15:04:50.293Z,11.00
2018-05-12T15:07:18.760Z,10.23
2018-05-12T15:09:48.083Z,9.00
2018-05-12T15:12:16.371Z,8.33
2018-05-12T15:14:45.310Z,3.97
2018-05-12T15:17:12.787Z,5.40
2018-05-12T15:19:46.114Z,5.63
2018-05-12T15:22:13.721Z,16.53
2018-05-12T15:24:41.444Z,3.90
2018-05-12T15:27:10.664Z,4.00
2018-05-12T15:29:38.199Z,6.53
2018-05-12T15:32:06.645Z,9.53
2018-05-12T15:34:40.218Z,3.00
2018-05-12T15:37:07.887Z,7.67
2018-05-12T15:39:35.401Z,8.33
2018-05-12T15:42:04.027Z,5.70
2018-05-12T15:44:33.291Z,4.60
2018-05-12T15:47:06.414Z,6.97
2018-05-12T15:49:34.189Z,7.80
2018-05-12T15:52:01.827Z,3.20
2018-05-12T15:54:30.962Z,4.80
2018-05-12T15:56:59.811Z,6.70
2018-05-12T15:59:27.608Z,3.53
2018-05-12T16:01:57.232Z,4.83
2018-05-12T16:04:25.838Z,2.90
2018-05-12T16:06:53.844Z,7.33
2018-05-12T16:09:22.459Z,10.33
2018-05-12T16:11:53.452Z,3.50
2018-05-12T16:14:21.497Z,5.17
2018-05-12T16:16:49.693Z,3.37
2018-05-12T16:19:20.136Z,5.00
2018-05-12T16:21:49.579Z,6.93
2018-05-12T16:24:21.366Z,4.37
2018-05-12T16:26:50.871Z,14.20
2018-05-12T16:29:22.156Z,6.03
2018-05-12T16:31:49.699Z,7.60
2018-05-12T16:34:18.601Z,4.90
2018-05-12T16:36:46.286Z,3.10
2018-05-12T16:39:17.274Z,8.87
2018-05-12T16:41:50.827Z,2.70
2018-05-12T16:44:18.657Z,13.47
2018-05-12T16:46:46.945Z,4.40
2018-05-12T16:49:15.852Z,8.60
2018-05-12T16:51:46.603Z,5.00
2018-05-12T16:54:17.440Z,12.77
2018-05-12T16:56:47.798Z,7.87
2018-05-12T16:59:16.559Z,2.87
2018-05-12T17:01:45.617Z,5.50
2018-05-12T17:04:13.147Z,3.83
2018-05-12T17:06:41.662Z,7.17
2018-05-12T17:09:10.013Z,3.37
2018-05-12T17:11:38.362Z,2.87
2018-05-12T17:14:05.882Z,16.60
2018-05-12T17:16:33.532Z,6.30
2018-05-12T17:19:03.300Z,7.47
2018-05-12T17:21:30.839Z,17.43
2018-05-12T17:23:58.757Z,6.30
2018-05-12T17:26:26.871Z,6.13
2018-05-12T17:28:54.679Z,4.60
2018-05-12T17:31:22.260Z,12.53
2018-05-12T17:33:53.255Z,7.67
2018-05-12T17:36:21.127Z,11.57
2018-05-12T17:38:48.592Z,11.00
2018-05-12T17:41:16.719Z,10.60
2018-05-12T17:43:45.503Z,6.40
2018-05-12T17:46:14.997Z,5.23
2018-05-12T17:48:42.685Z,4.03
2018-05-12T17:51:13.527Z,8.90
2018-05-12T17:53:41.108Z,4.90
2018-05-12T17:56:08.671Z,20.77
2018-05-12T17:58:36.440Z,4.80
2018-05-12T18:01:05.601Z,7.87
2018-05-12T18:03:33.964Z,8.17
2018-05-12T18:06:05.267Z,9.53
2018-05-12T18:08:33.055Z,8.50
2018-05-12T18:11:02.180Z,13.00
2018-05-12T18:13:29.787Z,19.70
2018-05-12T18:15:58.143Z,10.47
2018-05-12T18:18:29.245Z,7.23
2018-05-12T18:20:57.879Z,7.77
2018-05-12T18:23:27.135Z,13.63
2018-05-12T18:25:54.784Z,13.03
2018-05-12T18:28:24.973Z,10.53
2018-05-12T18:30:56.860Z,8.47
2018-05-12T18:33:27.534Z,7.33
2018-05-12T18:35:55.931Z,7.10
2018-05-12T18:38:24.714Z,6.93
2018-05-12T18:40:56.620Z,9.00
2018-05-12T18:43:24.299Z,14.53
2018-05-12T18:45:55.496Z,9.57
2018-05-12T18:48:26.600Z,7.20
2018-05-12T18:50:54.224Z,6.83
2018-05-12T18:53:25.748Z,8.77
2018-05-12T18:55:53.278Z,25.90
2018-05-12T18:58:22.356Z,17.30
2018-05-12T19:00:49.943Z,7.57
2018-05-12T19:03:17.492Z,4.90
2018-05-12T19:05:45.211Z,9.20
2018-05-12T19:08:13.786Z,5.73
2018-05-12T19:10:42.960Z,7.60
2018-05-12T19:13:10.568Z,15.17
2018-05-12T19:15:40.742Z,9.40
2018-05-12T19:18:08.517Z,6.03
2018-05-12T19:20:36.046Z,5.57
2018-05-12T19:23:04.155Z,6.53
2018-05-12T19:25:32.844Z,8.90
2018-05-12T19:28:00.407Z,7.83
2018-05-12T19:30:28.204Z,5.37
2018-05-12T19:32:56.519Z,12.10
2018-05-12T19:35:24.092Z,6.03
2018-05-12T19:37:52.060Z,9.07
2018-05-12T19:40:19.717Z,6.40
2018-05-12T19:42:47.385Z,16.70
2018-05-12T19:45:15.694Z,6.40
2018-05-12T19:47:44.514Z,11.83
2018-05-12T19:50:14.711Z,6.73
2018-05-12T19:52:43.196Z,7.33
2018-05-12T19:55:11.593Z,7.03
2018-05-12T19:57:39.203Z,5.30
2018-05-12T20:00:06.835Z,5.90
2018-05-12T20:02:35.223Z,7.40
2018-05-12T20:05:02.824Z,7.33
2018-05-12T20:07:30.481Z,7.07
2018-05-12T20:09:58.812Z,6.83
2018-05-12T20:12:26.693Z,6.30
2018-05-12T20:14:54.285Z,6.73
2018-05-12T20:17:21.864Z,6.87
2018-05-12T20:19:50.190Z,6.93
2018-05-12T20:22:17.777Z,6.83
2018-05-12T20:24:45.389Z,6.33
2018-05-12T20:27:12.979Z,6.70
2018-05-12T20:32:14.434Z,20.70
2018-05-12T20:34:42.167Z,18.33
2018-05-12T20:37:10.345Z,16.03
2018-05-12T20:39:37.916Z,12.73
2018-05-12T20:42:05.493Z,5.60
2018-05-12T20:44:33.085Z,8.23
2018-05-12T20:47:00.693Z,7.97
2018-05-12T20:49:29.023Z,7.57
2018-05-12T20:51:56.666Z,7.10
2018-05-12T20:54:24.287Z,8.30
2018-05-12T20:56:52.752Z,10.27
2018-05-12T20:59:21.156Z,8.50
2018-05-12T21:01:48.766Z,4.93
2018-05-12T21:04:16.356Z,6.67
2018-05-12T21:06:43.965Z,7.67
2018-05-12T21:09:12.652Z,12.27
2018-05-12T21:11:40.320Z,18.37
2018-05-12T21:14:08.921Z,20.23
2018-05-12T21:16:39.122Z,16.80
2018-05-12T21:19:06.852Z,12.13
2018-05-12T21:21:34.483Z,13.00
2018-05-12T21:24:02.147Z,12.30
2018-05-12T21:26:30.434Z,10.00
2018-05-12T21:28:58.777Z,13.53
2018-05-12T21:31:27.212Z,12.20
2018-05-12T21:33:54.889Z,11.20
2018-05-12T21:36:22.973Z,15.57
2018-05-12T21:38:50.637Z,17.83
2018-05-12T21:41:18.196Z,19.33
2018-05-12T21:43:46.388Z,14.53
2018-05-12T21:46:13.972Z,14.67
2018-05-12T21:48:41.531Z,21.83
2018-05-12T21:51:10.000Z,17.43
2018-05-12T21:53:38.334Z,15.00
2018-05-12T21:56:06.008Z,21.03
2018-05-12T21:58:33.971Z,17.50
2018-05-12T22:01:01.619Z,12.83
2018-05-12T22:03:29.387Z,16.07
2018-05-12T22:05:57.057Z,15.70
2018-05-12T22:08:24.686Z,18.13
2018-05-12T22:10:53.091Z,14.07
2018-05-12T22:13:20.926Z,13.70
2018-05-12T22:15:49.447Z,15.97
2018-05-12T22:18:17.252Z,13.97
2018-05-12T22:20:45.672Z,13.97
2018-05-12T22:23:13.489Z,14.57
2018-05-12T22:25:41.267Z,13.53
2018-05-12T22:28:08.774Z,14.67
2018-05-12T22:30:36.415Z,15.50
2018-05-12T22:33:04.007Z,14.83
2018-05-12T22:35:31.540Z,15.80
2018-05-12T22:37:59.396Z,15.73
2018-05-12T22:40:31.759Z,15.60
2018-05-12T22:43:01.108Z,16.30
2018-05-12T22:45:28.628Z,16.33
2018-05-12T22:47:56.910Z,13.50
2018-05-12T22:50:25.222Z,14.93
2018-05-12T22:52:52.731Z,16.10
2018-05-12T22:55:20.446Z,16.13
2018-05-12T22:57:48.123Z,14.77
2018-05-12T23:00:15.723Z,15.37
2018-05-12T23:02:44.055Z,14.57
2018-05-12T23:05:13.317Z,15.17
2018-05-12T23:07:41.628Z,17.23
2018-05-12T23:10:10.054Z,15.87
2018-05-12T23:12:37.708Z,15.87
2018-05-12T23:15:06.177Z,21.00
2018-05-12T23:17:33.710Z,20.80
2018-05-12T23:20:01.928Z,22.40
2018-05-12T23:22:31.391Z,22.20
2018-05-12T23:24:59.453Z,22.97
2018-05-12T23:27:27.225Z,24.30
2018-05-12T23:29:55.304Z,24.27
2018-05-12T23:32:22.983Z,26.83
2018-05-12T23:34:50.552Z,27.67
2018-05-12T23:37:18.261Z,28.03
2018-05-12T23:39:46.159Z,28.40
2018-05-12T23:42:14.737Z,28.33
2018-05-12T23:44:43.321Z,26.87
2018-05-12T23:47:11.910Z,25.77
2018-05-12T23:49:40.611Z,27.37
2018-05-12T23:52:09.201Z,27.37
2018-05-12T23:54:36.944Z,27.47
2018-05-12T23:57:04.817Z,26.47
2018-05-12T23:59:32.537Z,26.47
